createdAt,value
2022-10-03T00:00:15.919Z,368
2022-10-03T00:01:16.264Z,380
2022-10-03T00:02:16.137Z,377
2022-10-03T00:03:15.755Z,372
2022-10-03T00:04:15.547Z,370
2022-10-03T00:05:15.930Z,368
2022-10-03T00:06:15.972Z,361
2022-10-03T00:07:16.547Z,362
2022-10-03T00:08:16.178Z,357
2022-10-03T00:09:14.841Z,359
2022-10-03T00:10:16.365Z,357
2022-10-03T00:11:16.017Z,355
2022-10-03T00:12:15.834Z,352
2022-10-03T00:13:16.286Z,348
2022-10-03T00:14:15.228Z,350
2022-10-03T00:15:15.442Z,360
2022-10-03T00:16:16.218Z,361
2022-10-03T00:17:16.033Z,365
2022-10-03T00:18:16.515Z,363
2022-10-03T00:19:15.487Z,361
2022-10-03T00:20:16.013Z,357
2022-10-03T00:21:16.566Z,355
2022-10-03T00:22:16.420Z,363
2022-10-03T00:23:15.973Z,368
2022-10-03T00:24:15.666Z,361
2022-10-03T00:25:16.286Z,360
2022-10-03T00:26:15.781Z,358
2022-10-03T00:27:16.474Z,362
2022-10-03T00:28:16.031Z,360
2022-10-03T00:29:14.829Z,352
2022-10-03T00:30:16.221Z,360
2022-10-03T00:31:15.576Z,368
2022-10-03T00:32:16.707Z,362
2022-10-03T00:33:16.217Z,364
2022-10-03T00:34:14.739Z,361
2022-10-03T00:35:16.409Z,369
2022-10-03T00:36:15.891Z,372
2022-10-03T00:37:16.546Z,375
2022-10-03T00:38:16.299Z,373
2022-10-03T00:39:14.980Z,374
2022-10-03T00:40:16.448Z,376
2022-10-03T00:41:16.204Z,375
2022-10-03T00:42:15.588Z,373
2022-10-03T00:43:16.532Z,376
2022-10-03T00:44:15.263Z,362
2022-10-03T00:45:15.689Z,357
2022-10-03T00:46:16.229Z,365
2022-10-03T00:47:16.157Z,369
2022-10-03T00:48:15.840Z,366
2022-10-03T00:49:15.602Z,355
2022-10-03T00:50:16.059Z,390
2022-10-03T00:51:16.207Z,371
2022-10-03T00:52:16.752Z,366
2022-10-03T00:53:16.116Z,362
2022-10-03T00:54:14.672Z,366
2022-10-03T00:55:16.228Z,364
2022-10-03T00:56:16.143Z,368
2022-10-03T00:57:15.640Z,359
2022-10-03T00:58:16.445Z,369
2022-10-03T00:59:15.049Z,362
2022-10-03T01:00:15.451Z,376
2022-10-03T01:01:16.260Z,368
2022-10-03T01:02:15.961Z,360
2022-10-03T01:03:16.774Z,359
2022-10-03T01:04:15.435Z,356
2022-10-03T01:05:16.270Z,362
2022-10-03T01:06:16.481Z,373
2022-10-03T01:07:16.346Z,366
2022-10-03T01:08:16.236Z,363
2022-10-03T01:09:15.736Z,345
2022-10-03T01:10:16.214Z,381
2022-10-03T01:11:15.990Z,372
2022-10-03T01:12:16.469Z,360
2022-10-03T01:13:16.101Z,371
2022-10-03T01:14:14.960Z,379
2022-10-03T01:15:16.575Z,376
2022-10-03T01:16:16.373Z,371
2022-10-03T01:17:15.863Z,372
2022-10-03T01:18:16.502Z,362
2022-10-03T01:19:15.220Z,375
2022-10-03T01:20:15.757Z,362
2022-10-03T01:21:16.483Z,351
2022-10-03T01:22:16.015Z,349
2022-10-03T01:23:15.817Z,359
2022-10-03T01:24:15.454Z,364
2022-10-03T01:25:15.887Z,375
2022-10-03T01:26:15.903Z,370
2022-10-03T01:27:16.226Z,371
2022-10-03T01:28:16.037Z,366
2022-10-03T01:30:16.421Z,359
2022-10-03T01:31:16.297Z,366
2022-10-03T01:32:15.678Z,340
2022-10-03T01:33:16.318Z,358
2022-10-03T01:34:15.117Z,368
2022-10-03T01:35:16.702Z,364
2022-10-03T01:36:16.105Z,356
2022-10-03T01:37:15.684Z,359
2022-10-03T01:38:15.751Z,361
2022-10-03T01:40:16.041Z,377
2022-10-03T01:41:16.494Z,369
2022-10-03T01:42:16.318Z,364
2022-10-03T01:44:15.740Z,362
2022-10-03T01:45:16.149Z,356
2022-10-03T01:46:15.724Z,368
2022-10-03T01:47:16.704Z,372
2022-10-03T01:48:16.013Z,367
2022-10-03T01:49:14.914Z,370
2022-10-03T01:50:16.483Z,365
2022-10-03T01:51:15.985Z,383
2022-10-03T01:52:15.845Z,352
2022-10-03T01:53:16.675Z,354
2022-10-03T01:54:15.296Z,361
2022-10-03T01:55:15.779Z,370
2022-10-03T01:56:16.519Z,371
2022-10-03T01:57:16.266Z,377
2022-10-03T01:58:15.896Z,380
2022-10-03T01:59:15.551Z,375
2022-10-03T02:00:16.454Z,370
2022-10-03T02:02:16.598Z,360
2022-10-03T02:03:16.090Z,353
2022-10-03T02:04:14.804Z,355
2022-10-03T02:05:16.481Z,364
2022-10-03T02:06:16.363Z,365
2022-10-03T02:07:15.712Z,362
2022-10-03T02:08:16.308Z,366
2022-10-03T02:09:15.244Z,364
2022-10-03T02:11:16.440Z,366
2022-10-03T02:12:16.034Z,358
2022-10-03T02:13:16.853Z,355
2022-10-03T02:15:16.103Z,359
2022-10-03T02:16:16.843Z,354
2022-10-03T02:17:16.485Z,361
2022-10-03T02:18:15.779Z,363
2022-10-03T02:20:16.308Z,353
2022-10-03T02:21:15.571Z,352
2022-10-03T02:22:16.759Z,360
2022-10-03T02:23:16.194Z,373
2022-10-03T02:24:15.120Z,366
2022-10-03T02:25:16.581Z,374
2022-10-03T02:26:16.156Z,368
2022-10-03T02:27:15.972Z,365
2022-10-03T02:28:16.701Z,368
2022-10-03T02:29:15.327Z,366
2022-10-03T02:30:16.005Z,363
2022-10-03T02:31:16.700Z,368
2022-10-03T02:32:16.366Z,395
2022-10-03T02:33:15.522Z,355
2022-10-03T02:34:15.700Z,362
2022-10-03T02:35:16.400Z,370
2022-10-03T02:36:15.756Z,377
2022-10-03T02:37:16.024Z,380
2022-10-03T02:38:16.088Z,386
2022-10-03T02:39:15.924Z,377
2022-10-03T02:40:16.188Z,374
2022-10-03T02:41:16.236Z,377
2022-10-03T02:42:15.727Z,378
2022-10-03T02:43:16.169Z,385
2022-10-03T02:44:15.051Z,380
2022-10-03T02:45:16.437Z,378
2022-10-03T02:46:15.897Z,383
2022-10-03T02:47:16.707Z,387
2022-10-03T02:48:35.638Z,383
2022-10-03T02:49:15.199Z,379
2022-10-03T02:50:16.829Z,375
2022-10-03T02:51:16.062Z,366
2022-10-03T02:52:15.875Z,355
2022-10-03T02:53:16.392Z,391
2022-10-03T02:54:15.237Z,381
2022-10-03T02:55:16.052Z,384
2022-10-03T02:56:16.696Z,372
2022-10-03T02:57:16.199Z,378
2022-10-03T02:58:15.883Z,377
2022-10-03T02:59:15.452Z,381
2022-10-03T03:00:15.883Z,383
2022-10-03T03:01:16.821Z,381
2022-10-03T03:02:16.538Z,386
2022-10-03T03:03:15.902Z,388
2022-10-03T03:04:15.796Z,381
2022-10-03T03:06:15.836Z,383
2022-10-03T03:07:16.331Z,375
2022-10-03T03:08:16.287Z,382
2022-10-03T03:09:15.232Z,376
2022-10-03T03:10:16.698Z,378
2022-10-03T03:11:16.121Z,380
2022-10-03T03:12:15.780Z,381
2022-10-03T03:13:16.439Z,380
2022-10-03T03:14:15.405Z,368
2022-10-03T03:15:15.551Z,376
2022-10-03T03:16:16.432Z,386
2022-10-03T03:17:16.155Z,390
2022-10-03T03:18:15.960Z,394
2022-10-03T03:19:15.730Z,397
2022-10-03T03:20:16.148Z,390
2022-10-03T03:21:15.790Z,381
2022-10-03T03:22:16.433Z,385
2022-10-03T03:23:16.074Z,388
2022-10-03T03:24:15.002Z,395
2022-10-03T03:25:16.589Z,394
2022-10-03T03:26:15.978Z,390
2022-10-03T03:27:15.657Z,391
2022-10-03T03:28:16.332Z,386
2022-10-03T03:29:15.483Z,387
2022-10-03T03:30:15.635Z,382
2022-10-03T03:31:16.476Z,379
2022-10-03T03:32:16.061Z,384
2022-10-03T03:33:16.828Z,387
2022-10-03T03:34:15.323Z,395
2022-10-03T03:35:16.245Z,370
2022-10-03T03:36:16.618Z,376
2022-10-03T03:37:16.221Z,390
2022-10-03T03:38:16.092Z,392
2022-10-03T03:39:15.842Z,385
2022-10-03T03:40:16.326Z,386
2022-10-03T03:41:15.917Z,389
2022-10-03T03:42:16.638Z,378
2022-10-03T03:43:16.529Z,379
2022-10-03T03:44:15.112Z,376
2022-10-03T03:45:16.470Z,380
2022-10-03T03:46:16.432Z,384
2022-10-03T03:47:15.808Z,381
2022-10-03T03:48:16.405Z,384
2022-10-03T03:49:15.384Z,381
2022-10-03T03:50:15.854Z,388
2022-10-03T03:51:16.403Z,381
2022-10-03T03:52:16.260Z,373
2022-10-03T03:53:16.004Z,370
2022-10-03T03:55:16.010Z,391
2022-10-03T03:56:15.505Z,357
2022-10-03T03:57:16.394Z,370
2022-10-03T03:58:16.205Z,372
2022-10-03T03:59:15.860Z,373
2022-10-03T04:00:16.707Z,368
2022-10-03T04:01:16.206Z,378
2022-10-03T04:02:15.643Z,385
2022-10-03T04:03:16.499Z,379
2022-10-03T04:04:14.912Z,374
2022-10-03T04:05:16.719Z,372
2022-10-03T04:06:16.364Z,377
2022-10-03T04:07:20.854Z,384
2022-10-03T04:08:16.597Z,371
2022-10-03T04:10:16.309Z,376
2022-10-03T04:11:16.447Z,381
2022-10-03T04:12:16.440Z,392
2022-10-03T04:13:15.935Z,384
2022-10-03T04:14:15.704Z,377
2022-10-03T04:15:16.445Z,382
2022-10-03T04:16:15.895Z,400
2022-10-03T04:17:16.304Z,368
2022-10-03T04:18:16.198Z,373
2022-10-03T04:19:14.978Z,383
2022-10-03T04:20:16.253Z,395
2022-10-03T04:21:19.008Z,402
2022-10-03T04:22:16.463Z,403
2022-10-03T04:23:16.379Z,405
2022-10-03T04:24:14.830Z,396
2022-10-03T04:25:16.338Z,395
2022-10-03T04:26:15.960Z,401
2022-10-03T04:27:16.420Z,395
2022-10-03T04:28:16.344Z,392
2022-10-03T04:29:15.127Z,401
2022-10-03T04:30:16.373Z,393
2022-10-03T04:31:16.237Z,394
2022-10-03T04:32:16.002Z,390
2022-10-03T04:33:16.296Z,388
2022-10-03T04:34:15.117Z,392
2022-10-03T04:35:16.018Z,389
2022-10-03T04:36:16.354Z,382
2022-10-03T04:38:15.972Z,381
2022-10-03T04:40:16.113Z,392
2022-10-03T04:41:16.011Z,397
2022-10-03T04:42:16.621Z,398
2022-10-03T04:43:16.238Z,392
2022-10-03T04:44:14.945Z,390
2022-10-03T04:45:16.581Z,394
2022-10-03T04:46:16.002Z,396
2022-10-03T04:47:16.589Z,394
2022-10-03T04:48:16.198Z,381
2022-10-03T04:49:14.828Z,388
2022-10-03T04:50:15.827Z,390
2022-10-03T04:51:16.129Z,389
2022-10-03T04:52:15.177Z,396
2022-10-03T04:53:16.425Z,392
2022-10-03T04:54:15.278Z,381
2022-10-03T04:56:16.602Z,387
2022-10-03T04:57:15.600Z,389
2022-10-03T04:58:16.330Z,399
2022-10-03T04:59:15.556Z,386
2022-10-03T05:01:16.596Z,396
2022-10-03T05:02:15.766Z,400
2022-10-03T05:04:15.519Z,391
2022-10-03T05:05:16.484Z,392
2022-10-03T05:06:15.495Z,393
2022-10-03T05:07:16.673Z,386
2022-10-03T05:08:16.275Z,389
2022-10-03T05:10:17.904Z,393
2022-10-03T05:11:16.587Z,387
2022-10-03T05:12:15.712Z,386
2022-10-03T05:13:16.379Z,382
2022-10-03T05:14:14.788Z,388
2022-10-03T05:15:15.726Z,378
2022-10-03T05:16:16.691Z,379
2022-10-03T05:17:15.884Z,391
2022-10-03T05:19:15.637Z,387
2022-10-03T05:20:15.447Z,392
2022-10-03T05:21:15.828Z,391
2022-10-03T05:22:15.752Z,397
2022-10-03T05:23:15.740Z,391
2022-10-03T05:24:14.389Z,384
2022-10-03T05:25:16.464Z,391
2022-10-03T05:26:47.027Z,398
2022-10-03T05:27:15.837Z,396
2022-10-03T05:28:15.705Z,399
2022-10-03T05:29:15.289Z,395
2022-10-03T05:30:16.294Z,394
2022-10-03T05:31:16.358Z,401
2022-10-03T05:32:15.986Z,392
2022-10-03T05:33:16.538Z,396
2022-10-03T05:35:15.781Z,383
2022-10-03T05:36:16.883Z,384
2022-10-03T05:38:15.776Z,395
2022-10-03T05:39:15.490Z,411
2022-10-03T05:40:16.005Z,386
2022-10-03T05:41:16.596Z,382
2022-10-03T05:42:27.065Z,402
2022-10-03T05:43:16.793Z,404
2022-10-03T05:44:15.129Z,398
2022-10-03T05:45:16.049Z,396
2022-10-03T05:46:16.922Z,388
2022-10-03T05:47:16.478Z,393
2022-10-03T05:48:15.873Z,397
2022-10-03T05:49:16.034Z,396
2022-10-03T05:50:22.052Z,394
2022-10-03T05:51:15.950Z,397
2022-10-03T05:52:16.543Z,392
2022-10-03T05:53:16.307Z,389
2022-10-03T05:54:15.133Z,390
2022-10-03T05:55:16.410Z,384
2022-10-03T05:56:16.249Z,381
2022-10-03T05:57:16.512Z,390
2022-10-03T05:58:16.165Z,388
2022-10-03T05:59:15.232Z,387
2022-10-03T06:00:16.462Z,388
2022-10-03T06:01:16.778Z,363
2022-10-03T06:02:15.557Z,369
2022-10-03T06:03:16.525Z,385
2022-10-03T06:04:15.008Z,384
2022-10-03T06:05:15.917Z,388
2022-10-03T06:07:16.049Z,394
2022-10-03T06:08:16.705Z,391
2022-10-03T06:09:15.385Z,389
2022-10-03T06:11:16.347Z,388
2022-10-03T06:13:16.129Z,395
2022-10-03T06:15:15.829Z,397
2022-10-03T06:16:16.715Z,396
2022-10-03T06:17:16.442Z,395
2022-10-03T06:19:15.868Z,388
2022-10-03T06:20:16.184Z,386
2022-10-03T06:21:16.007Z,394
2022-10-03T06:22:16.419Z,397
2022-10-03T06:23:16.167Z,385
2022-10-03T06:24:15.187Z,373
2022-10-03T06:25:16.654Z,380
2022-10-03T06:26:15.707Z,390
2022-10-03T06:27:15.898Z,394
2022-10-03T06:28:16.645Z,387
2022-10-03T06:29:15.408Z,386
2022-10-03T06:30:15.845Z,393
2022-10-03T06:31:16.566Z,380
2022-10-03T06:32:16.321Z,370
2022-10-03T06:33:15.654Z,367
2022-10-03T06:34:15.445Z,384
2022-10-03T06:35:16.185Z,387
2022-10-03T06:36:15.521Z,379
2022-10-03T06:37:16.185Z,375
2022-10-03T06:38:16.061Z,374
2022-10-03T06:39:14.732Z,366
2022-10-03T06:40:16.074Z,364
2022-10-03T06:41:15.818Z,366
2022-10-03T06:42:16.561Z,372
2022-10-03T06:43:16.045Z,365
2022-10-03T06:44:14.861Z,372
2022-10-03T06:45:16.302Z,371
2022-10-03T06:46:15.574Z,372
2022-10-03T06:47:16.827Z,376
2022-10-03T06:48:16.196Z,375
2022-10-03T06:49:15.205Z,369
2022-10-03T06:50:15.666Z,370
2022-10-03T06:51:16.354Z,369
2022-10-03T06:52:15.450Z,352
2022-10-03T06:53:16.537Z,353
2022-10-03T06:54:14.968Z,351
2022-10-03T06:55:15.720Z,366
2022-10-03T06:56:17.011Z,358
2022-10-03T06:57:16.305Z,362
2022-10-03T06:58:16.043Z,371
2022-10-03T06:59:15.618Z,368
2022-10-03T07:00:16.066Z,363
2022-10-03T07:01:16.900Z,361
2022-10-03T07:02:16.072Z,333
2022-10-03T07:03:15.488Z,342
2022-10-03T07:04:15.753Z,352
2022-10-03T07:05:16.202Z,360
2022-10-03T07:06:16.049Z,352
2022-10-03T07:07:16.445Z,354
2022-10-03T07:08:16.255Z,359
2022-10-03T07:09:15.119Z,362
2022-10-03T07:10:16.413Z,358
2022-10-03T07:11:16.369Z,350
2022-10-03T07:12:18.950Z,353
2022-10-03T07:13:16.520Z,354
2022-10-03T07:14:15.295Z,369
2022-10-03T07:15:15.841Z,366
2022-10-03T07:16:31.793Z,362
2022-10-03T07:17:16.561Z,356
2022-10-03T07:18:15.404Z,359
2022-10-03T07:19:15.605Z,342
2022-10-03T07:20:16.246Z,344
2022-10-03T07:21:20.997Z,340
2022-10-03T07:22:16.717Z,370
2022-10-03T07:23:16.113Z,350
2022-10-03T07:24:15.458Z,348
2022-10-03T07:25:16.238Z,356
2022-10-03T07:26:16.402Z,362
2022-10-03T07:27:15.582Z,355
2022-10-03T07:28:16.325Z,362
2022-10-03T07:29:15.231Z,370
2022-10-03T07:30:15.461Z,376
2022-10-03T07:31:16.530Z,370
2022-10-03T07:32:15.886Z,357
2022-10-03T07:33:16.602Z,352
2022-10-03T07:34:15.514Z,345
2022-10-03T07:35:16.013Z,354
2022-10-03T07:36:16.630Z,363
2022-10-03T07:37:16.591Z,358
2022-10-03T07:38:15.427Z,346
2022-10-03T07:39:15.740Z,345
2022-10-03T07:40:16.251Z,357
2022-10-03T07:41:16.076Z,365
2022-10-03T07:42:16.804Z,334
2022-10-03T07:43:16.360Z,341
2022-10-03T07:44:14.949Z,355
2022-10-03T07:45:16.681Z,359
2022-10-03T07:46:16.168Z,357
2022-10-03T07:47:16.107Z,354
2022-10-03T07:48:16.502Z,353
2022-10-03T07:49:18.548Z,348
2022-10-03T07:50:15.712Z,346
2022-10-03T07:51:16.662Z,355
2022-10-03T07:52:16.093Z,359
2022-10-03T07:53:15.792Z,357
2022-10-03T07:54:15.195Z,353
2022-10-03T07:56:15.632Z,346
2022-10-03T07:58:16.053Z,349
2022-10-03T07:59:15.987Z,358
2022-10-03T08:00:16.329Z,337
2022-10-03T08:01:16.036Z,340
2022-10-03T08:02:16.794Z,352
2022-10-03T08:03:16.674Z,362
2022-10-03T08:04:14.704Z,361
2022-10-03T08:05:16.640Z,347
2022-10-03T08:06:15.625Z,342
2022-10-03T08:07:15.988Z,354
2022-10-03T08:08:16.124Z,347
2022-10-03T08:09:15.484Z,352
2022-10-03T08:10:15.864Z,356
2022-10-03T08:11:16.538Z,354
2022-10-03T08:12:16.003Z,350
2022-10-03T08:13:15.885Z,345
2022-10-03T08:14:15.349Z,351
2022-10-03T08:15:16.053Z,342
2022-10-03T08:16:16.658Z,343
2022-10-03T08:17:16.313Z,349
2022-10-03T08:18:15.938Z,348
2022-10-03T08:19:16.748Z,369
2022-10-03T08:20:15.948Z,367
2022-10-03T08:21:15.898Z,351
2022-10-03T08:22:16.525Z,344
2022-10-03T08:23:16.099Z,345
2022-10-03T08:24:15.071Z,342
2022-10-03T08:25:16.458Z,351
2022-10-03T08:26:16.300Z,354
2022-10-03T08:27:15.898Z,350
2022-10-03T08:28:16.406Z,342
2022-10-03T08:29:15.097Z,344
2022-10-03T08:30:15.587Z,351
2022-10-03T08:31:16.474Z,355
2022-10-03T08:32:15.587Z,345
2022-10-03T08:33:15.903Z,347
2022-10-03T08:34:15.374Z,354
2022-10-03T08:35:16.190Z,349
2022-10-03T08:36:15.722Z,351
2022-10-03T08:37:16.504Z,363
2022-10-03T08:38:15.679Z,344
2022-10-03T08:41:15.753Z,343
2022-10-03T08:42:16.070Z,341
2022-10-03T08:44:15.075Z,345
2022-10-03T08:45:16.421Z,348
2022-10-03T08:46:15.836Z,341
2022-10-03T08:47:16.564Z,347
2022-10-03T08:49:15.769Z,345
2022-10-03T08:50:16.918Z,344
2022-10-03T08:51:16.420Z,343
2022-10-03T08:52:15.837Z,344
2022-10-03T08:53:16.687Z,347
2022-10-03T08:54:15.327Z,345
2022-10-03T08:55:15.603Z,340
2022-10-03T08:56:16.252Z,350
2022-10-03T08:57:16.319Z,360
2022-10-03T08:58:15.592Z,351
2022-10-03T08:59:15.808Z,341
2022-10-03T09:00:16.308Z,339
2022-10-03T09:01:15.755Z,340
2022-10-03T09:02:16.668Z,343
2022-10-03T09:03:41.918Z,348
2022-10-03T09:04:15.071Z,346
2022-10-03T09:05:16.695Z,345
2022-10-03T09:06:16.143Z,352
2022-10-03T09:07:23.314Z,345
2022-10-03T09:08:16.397Z,347
2022-10-03T09:09:15.537Z,342
2022-10-03T09:10:15.305Z,345
2022-10-03T09:11:16.455Z,348
2022-10-03T09:12:15.988Z,345
2022-10-03T09:13:15.763Z,339
2022-10-03T09:14:15.798Z,342
2022-10-03T09:15:16.205Z,339
2022-10-03T09:16:19.739Z,340
2022-10-03T09:17:16.466Z,336
2022-10-03T09:18:15.783Z,329
2022-10-03T09:19:15.668Z,321
2022-10-03T09:20:15.789Z,326
2022-10-03T09:21:15.679Z,331
2022-10-03T09:22:16.140Z,327
2022-10-03T09:23:15.869Z,338
2022-10-03T09:24:15.475Z,337
2022-10-03T09:26:15.982Z,335
2022-10-03T09:27:17.103Z,337
2022-10-03T09:28:15.964Z,336
2022-10-03T09:29:15.149Z,330
2022-10-03T09:30:16.469Z,321
2022-10-03T09:31:16.452Z,334
2022-10-03T09:32:16.088Z,361
2022-10-03T09:33:16.705Z,322
2022-10-03T09:34:15.834Z,332
2022-10-03T09:35:15.945Z,324
2022-10-03T09:37:16.364Z,326
2022-10-03T09:38:15.756Z,330
2022-10-03T09:39:15.858Z,333
2022-10-03T09:40:17.360Z,336
2022-10-03T09:41:15.918Z,340
2022-10-03T09:42:16.462Z,351
2022-10-03T09:43:16.437Z,342
2022-10-03T09:44:14.720Z,340
2022-10-03T09:45:16.305Z,334
2022-10-03T09:46:16.188Z,329
2022-10-03T09:47:15.859Z,337
2022-10-03T09:48:16.476Z,350
2022-10-03T09:49:15.284Z,345
2022-10-03T09:50:15.475Z,353
2022-10-03T09:51:16.586Z,331
2022-10-03T09:52:16.074Z,334
2022-10-03T09:53:15.946Z,335
2022-10-03T09:55:16.297Z,328
2022-10-03T09:56:15.606Z,319
2022-10-03T09:57:19.617Z,320
2022-10-03T09:58:15.694Z,322
2022-10-03T09:59:16.392Z,323
2022-10-03T10:00:15.371Z,327
2022-10-03T10:01:16.510Z,317
2022-10-03T10:02:16.099Z,330
2022-10-03T10:03:16.000Z,342
2022-10-03T10:04:15.825Z,336
2022-10-03T10:05:16.296Z,338
2022-10-03T10:06:15.687Z,335
2022-10-03T10:07:16.440Z,339
2022-10-03T10:08:15.817Z,320
2022-10-03T10:09:14.947Z,323
2022-10-03T10:10:16.567Z,333
2022-10-03T10:11:16.227Z,328
2022-10-03T10:12:15.780Z,335
2022-10-03T10:13:16.306Z,337
2022-10-03T10:15:17.024Z,333
2022-10-03T10:16:16.412Z,335
2022-10-03T10:17:16.237Z,327
2022-10-03T10:18:15.795Z,318
2022-10-03T10:19:15.480Z,326
2022-10-03T10:20:16.282Z,336
2022-10-03T10:21:16.632Z,340
2022-10-03T10:22:16.446Z,342
2022-10-03T10:23:16.025Z,337
2022-10-03T10:24:15.654Z,330
2022-10-03T10:25:15.901Z,358
2022-10-03T10:26:16.478Z,374
2022-10-03T10:27:16.166Z,344
2022-10-03T10:28:16.064Z,335
2022-10-03T10:29:15.587Z,334
2022-10-03T10:30:15.686Z,324
2022-10-03T10:31:16.006Z,328
2022-10-03T10:32:20.614Z,345
2022-10-03T10:33:16.015Z,343
2022-10-03T10:34:15.232Z,333
2022-10-03T10:35:16.460Z,331
2022-10-03T10:36:15.744Z,327
2022-10-03T10:37:16.555Z,336
2022-10-03T10:38:16.078Z,333
2022-10-03T10:39:15.899Z,339
2022-10-03T10:40:16.336Z,336
2022-10-03T10:41:16.204Z,339
2022-10-03T10:42:16.580Z,340
2022-10-03T10:43:20.351Z,327
2022-10-03T10:44:15.197Z,332
2022-10-03T10:45:16.202Z,336
2022-10-03T10:46:15.893Z,335
2022-10-03T10:47:17.012Z,334
2022-10-03T10:48:15.982Z,339
2022-10-03T10:49:15.179Z,345
2022-10-03T10:50:16.786Z,343
2022-10-03T10:51:16.540Z,337
2022-10-03T10:52:16.024Z,329
2022-10-03T10:54:15.935Z,336
2022-10-03T10:55:16.784Z,339
2022-10-03T10:56:16.445Z,329
2022-10-03T10:57:16.017Z,326
2022-10-03T10:58:16.908Z,340
2022-10-03T10:59:15.616Z,341
2022-10-03T11:00:15.906Z,333
2022-10-03T11:01:16.423Z,346
2022-10-03T11:02:16.020Z,339
2022-10-03T11:03:15.813Z,336
2022-10-03T11:04:15.855Z,333
2022-10-03T11:05:16.170Z,330
2022-10-03T11:07:16.561Z,337
2022-10-03T11:08:15.968Z,330
2022-10-03T11:09:15.099Z,336
2022-10-03T11:10:16.603Z,341
2022-10-03T11:11:16.446Z,328
2022-10-03T11:12:16.083Z,321
2022-10-03T11:13:16.873Z,325
2022-10-03T11:14:14.845Z,332
2022-10-03T11:15:15.972Z,340
2022-10-03T11:16:16.543Z,334
2022-10-03T11:17:16.135Z,328
2022-10-03T11:18:15.493Z,344
2022-10-03T11:19:15.629Z,333
2022-10-03T11:20:16.197Z,332
2022-10-03T11:21:15.875Z,339
2022-10-03T11:22:15.852Z,325
2022-10-03T11:25:16.298Z,332
2022-10-03T11:26:16.461Z,334
2022-10-03T11:27:16.683Z,338
2022-10-03T11:28:18.827Z,339
2022-10-03T11:29:14.991Z,335
2022-10-03T11:30:16.291Z,331
2022-10-03T11:31:16.760Z,335
2022-10-03T11:32:15.835Z,338
2022-10-03T11:33:16.222Z,340
2022-10-03T11:34:14.715Z,338
2022-10-03T11:35:15.509Z,327
2022-10-03T11:36:16.252Z,361
2022-10-03T11:37:15.602Z,349
2022-10-03T11:38:16.206Z,346
2022-10-03T11:39:15.335Z,335
2022-10-03T11:40:15.408Z,333
2022-10-03T11:42:15.622Z,332
2022-10-03T11:43:15.872Z,322
2022-10-03T11:44:15.526Z,316
2022-10-03T11:45:15.845Z,328
2022-10-03T11:46:15.668Z,331
2022-10-03T11:47:16.245Z,334
2022-10-03T11:48:15.805Z,345
2022-10-03T11:49:15.899Z,329
2022-10-03T11:50:16.279Z,332
2022-10-03T11:51:15.938Z,335
2022-10-03T11:52:16.842Z,345
2022-10-03T11:53:16.343Z,332
2022-10-03T11:54:33.490Z,352
2022-10-03T11:55:16.582Z,353
2022-10-03T11:56:16.268Z,348
2022-10-03T11:57:15.777Z,352
2022-10-03T11:58:16.433Z,345
2022-10-03T11:59:15.348Z,340
2022-10-03T12:00:15.546Z,347
2022-10-03T12:01:16.344Z,337
2022-10-03T12:02:15.906Z,332
2022-10-03T12:03:15.793Z,330
2022-10-03T12:04:15.525Z,331
2022-10-03T12:05:15.806Z,342
2022-10-03T12:06:15.581Z,355
2022-10-03T12:07:17.679Z,356
2022-10-03T12:08:15.648Z,353
2022-10-03T12:09:14.744Z,342
2022-10-03T12:10:16.298Z,337
2022-10-03T12:11:16.129Z,344
2022-10-03T12:12:15.597Z,350
2022-10-03T12:13:16.580Z,344
2022-10-03T12:14:15.349Z,348
2022-10-03T12:15:16.539Z,347
2022-10-03T12:16:16.166Z,341
2022-10-03T12:18:16.763Z,345
2022-10-03T12:19:15.492Z,352
2022-10-03T12:20:15.716Z,357
2022-10-03T12:21:21.094Z,354
2022-10-03T12:22:16.610Z,339
2022-10-03T12:24:15.788Z,338
2022-10-03T12:25:16.172Z,325
2022-10-03T12:26:15.723Z,336
2022-10-03T12:27:16.319Z,344
2022-10-03T12:28:16.091Z,335
2022-10-03T12:29:15.197Z,327
2022-10-03T12:30:16.603Z,336
2022-10-03T12:31:19.069Z,337
2022-10-03T12:32:15.550Z,334
2022-10-03T12:33:16.595Z,331
2022-10-03T12:34:15.222Z,328
2022-10-03T12:35:15.795Z,331
2022-10-03T12:36:16.297Z,336
2022-10-03T12:37:15.871Z,331
2022-10-03T12:38:16.023Z,327
2022-10-03T12:39:16.108Z,328
2022-10-03T12:40:15.449Z,344
2022-10-03T12:41:16.719Z,343
2022-10-03T12:42:16.543Z,339
2022-10-03T12:43:15.732Z,347
2022-10-03T12:44:16.291Z,342
2022-10-03T12:45:16.062Z,331
2022-10-03T12:46:15.908Z,335
2022-10-03T12:47:21.481Z,337
2022-10-03T12:48:15.702Z,336
2022-10-03T12:49:15.794Z,320
2022-10-03T12:50:15.871Z,321
2022-10-03T12:51:16.032Z,325
2022-10-03T12:52:16.398Z,327
2022-10-03T12:53:16.028Z,329
2022-10-03T12:54:15.028Z,331
2022-10-03T12:55:16.451Z,324
2022-10-03T12:56:16.174Z,321
2022-10-03T12:57:15.903Z,314
2022-10-03T12:58:16.169Z,328
2022-10-03T12:59:15.357Z,313
2022-10-03T13:00:15.527Z,353
2022-10-03T13:01:16.491Z,324
2022-10-03T13:02:15.816Z,328
2022-10-03T13:03:15.616Z,329
2022-10-03T13:04:15.396Z,331
2022-10-03T13:05:16.118Z,327
2022-10-03T13:06:16.657Z,324
2022-10-03T13:07:16.534Z,332
2022-10-03T13:08:16.101Z,336
2022-10-03T13:09:16.352Z,338
2022-10-03T13:10:16.248Z,334
2022-10-03T13:12:16.637Z,332
2022-10-03T13:13:16.219Z,329
2022-10-03T13:14:15.870Z,327
2022-10-03T13:15:16.640Z,330
2022-10-03T13:16:16.408Z,342
2022-10-03T13:17:15.986Z,338
2022-10-03T13:18:16.937Z,325
2022-10-03T13:19:15.476Z,344
2022-10-03T13:20:16.069Z,347
2022-10-03T13:21:46.334Z,334
2022-10-03T13:22:16.096Z,324
2022-10-03T13:23:15.828Z,333
2022-10-03T13:24:15.246Z,334
2022-10-03T13:25:15.741Z,337
2022-10-03T13:26:22.393Z,333
2022-10-03T13:27:16.314Z,332
2022-10-03T13:28:15.955Z,336
2022-10-03T13:30:16.106Z,342
2022-10-03T13:31:15.754Z,330
2022-10-03T13:32:16.352Z,329
2022-10-03T13:33:16.168Z,318
2022-10-03T13:34:14.665Z,356
2022-10-03T13:35:16.456Z,315
2022-10-03T13:36:16.248Z,324
2022-10-03T13:37:15.776Z,328
2022-10-03T13:38:16.543Z,331
2022-10-03T13:39:15.155Z,325
2022-10-03T13:40:15.804Z,317
2022-10-03T13:41:16.614Z,322
2022-10-03T13:42:15.967Z,331
2022-10-03T13:43:17.480Z,328
2022-10-03T13:44:15.616Z,340
2022-10-03T13:45:16.149Z,351
2022-10-03T13:46:16.965Z,361
2022-10-03T13:47:16.401Z,357
2022-10-03T13:48:16.036Z,344
2022-10-03T13:49:16.695Z,343
2022-10-03T13:51:16.164Z,342
2022-10-03T13:52:16.591Z,321
2022-10-03T13:53:16.425Z,328
2022-10-03T13:54:15.079Z,334
2022-10-03T13:55:16.495Z,336
2022-10-03T13:56:16.216Z,346
2022-10-03T13:57:16.018Z,342
2022-10-03T13:58:16.138Z,339
2022-10-03T13:59:15.345Z,335
2022-10-03T14:00:15.809Z,325
2022-10-03T14:01:16.780Z,318
2022-10-03T14:02:16.067Z,330
2022-10-03T14:03:15.972Z,344
2022-10-03T14:05:15.633Z,332
2022-10-03T14:06:15.757Z,339
2022-10-03T14:07:16.362Z,342
2022-10-03T14:08:16.141Z,331
2022-10-03T14:09:14.858Z,330
2022-10-03T14:10:16.402Z,332
2022-10-03T14:11:16.151Z,328
2022-10-03T14:12:15.836Z,327
2022-10-03T14:13:16.559Z,320
2022-10-03T14:14:15.334Z,316
2022-10-03T14:15:15.821Z,313
2022-10-03T14:16:16.425Z,320
2022-10-03T14:17:16.157Z,338
2022-10-03T14:18:16.536Z,336
2022-10-03T14:19:15.446Z,339
2022-10-03T14:20:15.635Z,344
2022-10-03T14:21:16.772Z,346
2022-10-03T14:22:16.396Z,349
2022-10-03T14:23:16.445Z,341
2022-10-03T14:24:15.834Z,328
2022-10-03T14:25:16.354Z,329
2022-10-03T14:26:15.256Z,333
2022-10-03T14:27:16.595Z,325
2022-10-03T14:28:16.613Z,334
2022-10-03T14:29:15.064Z,331
2022-10-03T14:30:16.801Z,321
2022-10-03T14:31:16.386Z,314